sensor_id;sensor_type;location;lat;lon;timestamp;temperature;humidity
14531;DHT22;7352;50.866;4.366;2022-12-07T00:00:27;7.50;99.90
14531;DHT22;7352;50.866;4.366;2022-12-07T00:02:54;7.50;99.90
14531;DHT22;7352;50.866;4.366;2022-12-07T00:05:21;7.50;99.90
14531;DHT22;7352;50.866;4.366;2022-12-07T00:07:49;7.50;99.90
14531;DHT22;7352;50.866;4.366;2022-12-07T00:10:16;7.30;99.90
14531;DHT22;7352;50.866;4.366;2022-12-07T00:12:43;7.40;99.90
14531;DHT22;7352;50.866;4.366;2022-12-07T00:15:10;7.20;99.90
14531;DHT22;7352;50.866;4.366;2022-12-07T00:17:37;7.10;99.90
14531;DHT22;7352;50.866;4.366;2022-12-07T00:20:06;7.00;99.90
14531;DHT22;7352;50.866;4.366;2022-12-07T00:22:33;7.00;99.90
14531;DHT22;7352;50.866;4.366;2022-12-07T00:25:01;7.10;99.90
14531;DHT22;7352;50.866;4.366;2022-12-07T00:27:28;7.10;99.90
14531;DHT22;7352;50.866;4.366;2022-12-07T00:29:55;7.00;99.90
14531;DHT22;7352;50.866;4.366;2022-12-07T00:32:22;7.10;99.90
14531;DHT22;7352;50.866;4.366;2022-12-07T00:34:49;7.00;99.90
14531;DHT22;7352;50.866;4.366;2022-12-07T00:37:16;7.10;99.90
14531;DHT22;7352;50.866;4.366;2022-12-07T00:39:43;7.00;99.90
14531;DHT22;7352;50.866;4.366;2022-12-07T00:42:11;6.90;99.90
14531;DHT22;7352;50.866;4.366;2022-12-07T00:44:40;6.90;99.90
14531;DHT22;7352;50.866;4.366;2022-12-07T00:47:06;6.90;99.90
14531;DHT22;7352;50.866;4.366;2022-12-07T00:49:33;6.70;99.90
14531;DHT22;7352;50.866;4.366;2022-12-07T00:52:01;6.80;99.90
14531;DHT22;7352;50.866;4.366;2022-12-07T00:54:28;6.80;99.90
14531;DHT22;7352;50.866;4.366;2022-12-07T00:56:55;6.70;99.90
14531;DHT22;7352;50.866;4.366;2022-12-07T00:59:23;6.60;99.90
14531;DHT22;7352;50.866;4.366;2022-12-07T01:01:50;6.60;99.90
14531;DHT22;7352;50.866;4.366;2022-12-07T01:04:17;6.70;99.90
14531;DHT22;7352;50.866;4.366;2022-12-07T01:06:44;6.80;99.90
14531;DHT22;7352;50.866;4.366;2022-12-07T01:09:11;6.70;99.90
14531;DHT22;7352;50.866;4.366;2022-12-07T01:11:38;6.60;99.90
14531;DHT22;7352;50.866;4.366;2022-12-07T01:14:05;6.60;99.90
14531;DHT22;7352;50.866;4.366;2022-12-07T01:16:33;6.50;99.90
14531;DHT22;7352;50.866;4.366;2022-12-07T01:19:01;6.50;99.90
14531;DHT22;7352;50.866;4.366;2022-12-07T01:21:31;6.50;99.90
14531;DHT22;7352;50.866;4.366;2022-12-07T01:24:00;6.30;99.90
14531;DHT22;7352;50.866;4.366;2022-12-07T01:26:28;6.30;99.90
14531;DHT22;7352;50.866;4.366;2022-12-07T01:28:55;6.20;99.90
14531;DHT22;7352;50.866;4.366;2022-12-07T01:31:25;6.30;99.90
14531;DHT22;7352;50.866;4.366;2022-12-07T01:33:55;6.40;99.90
14531;DHT22;7352;50.866;4.366;2022-12-07T01:36:24;6.50;99.90
14531;DHT22;7352;50.866;4.366;2022-12-07T01:38:54;6.60;99.90
14531;DHT22;7352;50.866;4.366;2022-12-07T01:41:23;6.70;99.90
14531;DHT22;7352;50.866;4.366;2022-12-07T01:44:21;6.60;99.90
14531;DHT22;7352;50.866;4.366;2022-12-07T01:46:50;6.70;99.90
14531;DHT22;7352;50.866;4.366;2022-12-07T01:49:29;6.70;99.90
14531;DHT22;7352;50.866;4.366;2022-12-07T01:52:03;6.60;99.90
14531;DHT22;7352;50.866;4.366;2022-12-07T01:54:35;6.60;99.90
14531;DHT22;7352;50.866;4.366;2022-12-07T01:57:03;6.70;99.90
14531;DHT22;7352;50.866;4.366;2022-12-07T01:59:31;6.70;99.90
14531;DHT22;7352;50.866;4.366;2022-12-07T02:01:58;6.70;99.90
14531;DHT22;7352;50.866;4.366;2022-12-07T02:04:27;6.70;99.90
14531;DHT22;7352;50.866;4.366;2022-12-07T02:06:55;6.70;99.90
14531;DHT22;7352;50.866;4.366;2022-12-07T02:09:22;6.70;99.90
14531;DHT22;7352;50.866;4.366;2022-12-07T02:11:49;6.80;99.90
14531;DHT22;7352;50.866;4.366;2022-12-07T02:14:17;6.80;99.90
14531;DHT22;7352;50.866;4.366;2022-12-07T02:16:51;6.80;99.90
14531;DHT22;7352;50.866;4.366;2022-12-07T02:19:58;6.70;99.90
14531;DHT22;7352;50.866;4.366;2022-12-07T02:25:37;6.50;99.90
14531;DHT22;7352;50.866;4.366;2022-12-07T02:28:12;6.70;99.90
14531;DHT22;7352;50.866;4.366;2022-12-07T02:30:48;6.90;99.90
14531;DHT22;7352;50.866;4.366;2022-12-07T02:33:17;6.90;99.90
14531;DHT22;7352;50.866;4.366;2022-12-07T02:35:50;6.80;99.90
14531;DHT22;7352;50.866;4.366;2022-12-07T02:38:24;6.60;99.90
14531;DHT22;7352;50.866;4.366;2022-12-07T02:40:55;6.60;99.90
14531;DHT22;7352;50.866;4.366;2022-12-07T02:43:26;6.50;99.90
14531;DHT22;7352;50.866;4.366;2022-12-07T02:45:57;6.60;99.90
14531;DHT22;7352;50.866;4.366;2022-12-07T02:48:26;6.50;99.90
14531;DHT22;7352;50.866;4.366;2022-12-07T02:50:56;6.40;99.90
14531;DHT22;7352;50.866;4.366;2022-12-07T02:53:32;6.30;99.90
14531;DHT22;7352;50.866;4.366;2022-12-07T02:56:02;6.30;99.90
14531;DHT22;7352;50.866;4.366;2022-12-07T02:58:40;6.20;99.90
14531;DHT22;7352;50.866;4.366;2022-12-07T03:01:17;6.10;99.90
14531;DHT22;7352;50.866;4.366;2022-12-07T03:03:52;6.20;99.90
14531;DHT22;7352;50.866;4.366;2022-12-07T03:06:29;6.20;99.90
14531;DHT22;7352;50.866;4.366;2022-12-07T03:09:04;6.30;99.90
14531;DHT22;7352;50.866;4.366;2022-12-07T03:11:42;6.30;99.90
14531;DHT22;7352;50.866;4.366;2022-12-07T03:14:15;6.30;99.90
14531;DHT22;7352;50.866;4.366;2022-12-07T03:16:49;6.30;99.90
14531;DHT22;7352;50.866;4.366;2022-12-07T03:19:20;6.20;99.90
14531;DHT22;7352;50.866;4.366;2022-12-07T03:21:53;6.40;99.90
14531;DHT22;7352;50.866;4.366;2022-12-07T03:24:27;6.30;99.90
14531;DHT22;7352;50.866;4.366;2022-12-07T03:26:59;6.20;99.90
14531;DHT22;7352;50.866;4.366;2022-12-07T03:29:30;6.30;99.90
14531;DHT22;7352;50.866;4.366;2022-12-07T03:32:02;6.20;99.90
14531;DHT22;7352;50.866;4.366;2022-12-07T03:34:35;6.30;99.90
14531;DHT22;7352;50.866;4.366;2022-12-07T03:37:06;6.30;99.90
14531;DHT22;7352;50.866;4.366;2022-12-07T03:39:38;6.40;99.90
14531;DHT22;7352;50.866;4.366;2022-12-07T03:42:07;6.40;99.90
14531;DHT22;7352;50.866;4.366;2022-12-07T03:44:36;6.40;99.90
14531;DHT22;7352;50.866;4.366;2022-12-07T03:47:07;6.40;99.90
14531;DHT22;7352;50.866;4.366;2022-12-07T03:49:40;6.30;99.90
14531;DHT22;7352;50.866;4.366;2022-12-07T03:52:12;6.20;99.90
14531;DHT22;7352;50.866;4.366;2022-12-07T03:54:47;6.20;99.90
14531;DHT22;7352;50.866;4.366;2022-12-07T03:57:15;6.30;99.90
14531;DHT22;7352;50.866;4.366;2022-12-07T03:59:43;6.10;99.90
14531;DHT22;7352;50.866;4.366;2022-12-07T04:02:13;6.20;99.90
14531;DHT22;7352;50.866;4.366;2022-12-07T04:04:40;6.20;99.90
14531;DHT22;7352;50.866;4.366;2022-12-07T04:07:07;6.00;99.90
14531;DHT22;7352;50.866;4.366;2022-12-07T04:09:34;5.90;99.90
14531;DHT22;7352;50.866;4.366;2022-12-07T04:12:01;5.90;99.90
14531;DHT22;7352;50.866;4.366;2022-12-07T04:14:28;5.90;99.90
14531;DHT22;7352;50.866;4.366;2022-12-07T04:16:57;6.00;99.90
14531;DHT22;7352;50.866;4.366;2022-12-07T04:19:27;6.00;99.90
14531;DHT22;7352;50.866;4.366;2022-12-07T04:21:54;5.90;99.90
14531;DHT22;7352;50.866;4.366;2022-12-07T04:24:21;5.90;99.90
14531;DHT22;7352;50.866;4.366;2022-12-07T04:26:49;6.00;99.90
14531;DHT22;7352;50.866;4.366;2022-12-07T04:29:16;6.00;99.90
14531;DHT22;7352;50.866;4.366;2022-12-07T04:31:43;6.00;99.90
14531;DHT22;7352;50.866;4.366;2022-12-07T04:34:11;6.00;99.90
14531;DHT22;7352;50.866;4.366;2022-12-07T04:36:40;6.10;99.90
14531;DHT22;7352;50.866;4.366;2022-12-07T04:39:17;6.10;99.90
14531;DHT22;7352;50.866;4.366;2022-12-07T04:41:45;6.20;99.90
14531;DHT22;7352;50.866;4.366;2022-12-07T04:44:13;6.20;99.90
14531;DHT22;7352;50.866;4.366;2022-12-07T04:46:40;6.20;99.90
14531;DHT22;7352;50.866;4.366;2022-12-07T04:49:07;6.20;99.90
14531;DHT22;7352;50.866;4.366;2022-12-07T04:51:35;6.10;99.90
14531;DHT22;7352;50.866;4.366;2022-12-07T04:54:04;6.00;99.90
14531;DHT22;7352;50.866;4.366;2022-12-07T04:56:31;6.00;99.90
14531;DHT22;7352;50.866;4.366;2022-12-07T04:58:58;6.00;99.90
14531;DHT22;7352;50.866;4.366;2022-12-07T05:01:25;6.10;99.90
14531;DHT22;7352;50.866;4.366;2022-12-07T05:03:52;6.20;99.90
14531;DHT22;7352;50.866;4.366;2022-12-07T05:06:19;6.00;99.90
14531;DHT22;7352;50.866;4.366;2022-12-07T05:08:46;6.00;99.90
14531;DHT22;7352;50.866;4.366;2022-12-07T05:11:15;5.90;99.90
14531;DHT22;7352;50.866;4.366;2022-12-07T05:13:56;5.80;99.90
14531;DHT22;7352;50.866;4.366;2022-12-07T05:16:23;5.90;99.90
14531;DHT22;7352;50.866;4.366;2022-12-07T05:18:50;5.90;99.90
14531;DHT22;7352;50.866;4.366;2022-12-07T05:21:17;5.90;99.90
14531;DHT22;7352;50.866;4.366;2022-12-07T05:23:44;5.90;99.90
14531;DHT22;7352;50.866;4.366;2022-12-07T05:26:11;6.10;99.90
14531;DHT22;7352;50.866;4.366;2022-12-07T05:28:40;6.00;99.90
14531;DHT22;7352;50.866;4.366;2022-12-07T05:31:07;5.90;99.90
14531;DHT22;7352;50.866;4.366;2022-12-07T05:33:34;6.00;99.90
14531;DHT22;7352;50.866;4.366;2022-12-07T05:36:01;6.10;99.90
14531;DHT22;7352;50.866;4.366;2022-12-07T05:38:31;6.10;99.90
14531;DHT22;7352;50.866;4.366;2022-12-07T05:41:00;6.00;99.90
14531;DHT22;7352;50.866;4.366;2022-12-07T05:43:28;6.00;99.90
14531;DHT22;7352;50.866;4.366;2022-12-07T05:45:55;6.00;99.90
14531;DHT22;7352;50.866;4.366;2022-12-07T05:48:22;6.00;99.90
14531;DHT22;7352;50.866;4.366;2022-12-07T05:50:50;6.00;99.90
14531;DHT22;7352;50.866;4.366;2022-12-07T05:53:18;6.00;99.90
14531;DHT22;7352;50.866;4.366;2022-12-07T05:55:45;6.10;99.90
14531;DHT22;7352;50.866;4.366;2022-12-07T05:58:12;6.10;99.90
14531;DHT22;7352;50.866;4.366;2022-12-07T06:00:57;6.10;99.90
14531;DHT22;7352;50.866;4.366;2022-12-07T06:03:24;6.10;99.90
14531;DHT22;7352;50.866;4.366;2022-12-07T06:05:52;6.20;99.90
14531;DHT22;7352;50.866;4.366;2022-12-07T06:08:20;6.10;99.90
14531;DHT22;7352;50.866;4.366;2022-12-07T06:10:47;6.00;99.90
14531;DHT22;7352;50.866;4.366;2022-12-07T06:13:36;6.10;99.90
14531;DHT22;7352;50.866;4.366;2022-12-07T06:16:04;6.10;99.90
14531;DHT22;7352;50.866;4.366;2022-12-07T06:18:31;6.20;99.90
14531;DHT22;7352;50.866;4.366;2022-12-07T06:20:58;6.20;99.90
14531;DHT22;7352;50.866;4.366;2022-12-07T06:23:25;6.10;99.90
14531;DHT22;7352;50.866;4.366;2022-12-07T06:25:51;6.10;99.90
14531;DHT22;7352;50.866;4.366;2022-12-07T06:28:18;6.10;99.90
14531;DHT22;7352;50.866;4.366;2022-12-07T06:30:45;6.10;99.90
14531;DHT22;7352;50.866;4.366;2022-12-07T06:33:14;6.10;99.90
14531;DHT22;7352;50.866;4.366;2022-12-07T06:35:41;6.30;99.90
14531;DHT22;7352;50.866;4.366;2022-12-07T06:38:08;6.40;99.90
14531;DHT22;7352;50.866;4.366;2022-12-07T06:40:35;6.30;99.90
14531;DHT22;7352;50.866;4.366;2022-12-07T06:43:03;6.30;99.90
14531;DHT22;7352;50.866;4.366;2022-12-07T06:45:30;6.20;99.90
14531;DHT22;7352;50.866;4.366;2022-12-07T06:47:57;6.30;99.90
14531;DHT22;7352;50.866;4.366;2022-12-07T06:50:25;6.40;99.90
14531;DHT22;7352;50.866;4.366;2022-12-07T06:52:52;6.50;99.90
14531;DHT22;7352;50.866;4.366;2022-12-07T06:55:19;6.40;99.90
14531;DHT22;7352;50.866;4.366;2022-12-07T06:57:46;6.40;99.90
14531;DHT22;7352;50.866;4.366;2022-12-07T07:00:14;6.30;99.90
14531;DHT22;7352;50.866;4.366;2022-12-07T07:02:41;6.40;99.90
14531;DHT22;7352;50.866;4.366;2022-12-07T07:05:08;6.20;99.90
14531;DHT22;7352;50.866;4.366;2022-12-07T07:07:37;6.30;99.90
14531;DHT22;7352;50.866;4.366;2022-12-07T07:10:05;6.30;99.90
14531;DHT22;7352;50.866;4.366;2022-12-07T07:12:32;6.30;99.90
14531;DHT22;7352;50.866;4.366;2022-12-07T07:14:59;6.40;99.90
14531;DHT22;7352;50.866;4.366;2022-12-07T07:17:26;6.50;99.90
14531;DHT22;7352;50.866;4.366;2022-12-07T07:19:53;6.50;99.90
14531;DHT22;7352;50.866;4.366;2022-12-07T07:22:20;6.30;99.90
14531;DHT22;7352;50.866;4.366;2022-12-07T07:24:49;6.30;99.90
14531;DHT22;7352;50.866;4.366;2022-12-07T07:27:15;6.40;99.90
14531;DHT22;7352;50.866;4.366;2022-12-07T07:29:42;6.40;99.90
14531;DHT22;7352;50.866;4.366;2022-12-07T07:32:10;6.30;99.90
14531;DHT22;7352;50.866;4.366;2022-12-07T07:34:41;6.30;99.90
14531;DHT22;7352;50.866;4.366;2022-12-07T07:37:09;6.30;99.90
14531;DHT22;7352;50.866;4.366;2022-12-07T07:39:38;6.50;99.90
14531;DHT22;7352;50.866;4.366;2022-12-07T07:42:08;6.50;99.90
14531;DHT22;7352;50.866;4.366;2022-12-07T07:44:38;6.40;99.90
14531;DHT22;7352;50.866;4.366;2022-12-07T07:47:05;6.30;99.90
14531;DHT22;7352;50.866;4.366;2022-12-07T07:49:35;6.30;99.90
14531;DHT22;7352;50.866;4.366;2022-12-07T07:52:03;6.20;99.90
14531;DHT22;7352;50.866;4.366;2022-12-07T07:54:30;6.10;99.90
14531;DHT22;7352;50.866;4.366;2022-12-07T07:56:57;6.00;99.90
14531;DHT22;7352;50.866;4.366;2022-12-07T07:59:26;6.00;99.90
14531;DHT22;7352;50.866;4.366;2022-12-07T08:01:53;6.10;99.90
14531;DHT22;7352;50.866;4.366;2022-12-07T08:04:21;6.20;99.90
14531;DHT22;7352;50.866;4.366;2022-12-07T08:06:48;6.30;99.90
14531;DHT22;7352;50.866;4.366;2022-12-07T08:09:15;6.20;99.90
14531;DHT22;7352;50.866;4.366;2022-12-07T08:11:42;6.20;99.90
14531;DHT22;7352;50.866;4.366;2022-12-07T08:14:12;6.10;99.90
14531;DHT22;7352;50.866;4.366;2022-12-07T08:16:41;6.10;99.90
14531;DHT22;7352;50.866;4.366;2022-12-07T08:19:07;6.20;99.90
14531;DHT22;7352;50.866;4.366;2022-12-07T08:21:34;6.30;99.90
14531;DHT22;7352;50.866;4.366;2022-12-07T08:24:03;6.40;99.90
14531;DHT22;7352;50.866;4.366;2022-12-07T08:26:30;6.40;99.90
14531;DHT22;7352;50.866;4.366;2022-12-07T08:28:57;6.40;99.90
14531;DHT22;7352;50.866;4.366;2022-12-07T08:31:24;6.40;99.90
14531;DHT22;7352;50.866;4.366;2022-12-07T08:33:54;6.20;99.90
14531;DHT22;7352;50.866;4.366;2022-12-07T08:36:21;6.20;99.90
14531;DHT22;7352;50.866;4.366;2022-12-07T08:38:48;6.20;99.90
14531;DHT22;7352;50.866;4.366;2022-12-07T08:41:15;6.20;99.90
14531;DHT22;7352;50.866;4.366;2022-12-07T08:43:43;6.20;99.90
14531;DHT22;7352;50.866;4.366;2022-12-07T08:46:15;6.20;99.90
14531;DHT22;7352;50.866;4.366;2022-12-07T08:48:48;6.20;99.90
14531;DHT22;7352;50.866;4.366;2022-12-07T08:51:18;6.30;99.90
14531;DHT22;7352;50.866;4.366;2022-12-07T08:53:45;6.50;99.90
14531;DHT22;7352;50.866;4.366;2022-12-07T08:56:12;6.60;99.90
14531;DHT22;7352;50.866;4.366;2022-12-07T08:58:39;6.60;99.90
14531;DHT22;7352;50.866;4.366;2022-12-07T09:01:06;6.70;99.90
14531;DHT22;7352;50.866;4.366;2022-12-07T09:03:33;6.60;99.90
14531;DHT22;7352;50.866;4.366;2022-12-07T09:06:00;6.70;99.90
14531;DHT22;7352;50.866;4.366;2022-12-07T09:08:32;6.80;99.90
14531;DHT22;7352;50.866;4.366;2022-12-07T09:11:00;7.00;99.90
14531;DHT22;7352;50.866;4.366;2022-12-07T09:13:27;7.00;99.90
14531;DHT22;7352;50.866;4.366;2022-12-07T09:15:55;7.00;99.90
14531;DHT22;7352;50.866;4.366;2022-12-07T09:18:23;7.00;99.90
14531;DHT22;7352;50.866;4.366;2022-12-07T09:20:50;7.00;99.90
14531;DHT22;7352;50.866;4.366;2022-12-07T09:23:17;7.00;99.90
14531;DHT22;7352;50.866;4.366;2022-12-07T09:25:46;7.00;99.90
14531;DHT22;7352;50.866;4.366;2022-12-07T09:28:14;7.20;99.90
14531;DHT22;7352;50.866;4.366;2022-12-07T09:30:45;7.30;99.90
14531;DHT22;7352;50.866;4.366;2022-12-07T09:33:13;7.40;99.90
14531;DHT22;7352;50.866;4.366;2022-12-07T09:35:44;7.40;99.90
14531;DHT22;7352;50.866;4.366;2022-12-07T09:38:11;7.50;99.90
14531;DHT22;7352;50.866;4.366;2022-12-07T09:40:39;7.60;99.90
14531;DHT22;7352;50.866;4.366;2022-12-07T09:43:15;7.70;99.90
14531;DHT22;7352;50.866;4.366;2022-12-07T09:45:42;7.70;99.90
14531;DHT22;7352;50.866;4.366;2022-12-07T09:48:17;7.80;99.90
14531;DHT22;7352;50.866;4.366;2022-12-07T09:50:46;7.60;99.90
14531;DHT22;7352;50.866;4.366;2022-12-07T09:53:16;7.60;99.90
14531;DHT22;7352;50.866;4.366;2022-12-07T09:55:44;7.80;99.90
14531;DHT22;7352;50.866;4.366;2022-12-07T09:58:19;7.90;99.90
14531;DHT22;7352;50.866;4.366;2022-12-07T10:00:47;7.90;99.90
14531;DHT22;7352;50.866;4.366;2022-12-07T10:03:14;8.00;99.90
14531;DHT22;7352;50.866;4.366;2022-12-07T10:05:45;8.00;99.90
14531;DHT22;7352;50.866;4.366;2022-12-07T10:08:14;8.00;99.90
14531;DHT22;7352;50.866;4.366;2022-12-07T10:10:44;8.00;99.90
14531;DHT22;7352;50.866;4.366;2022-12-07T10:13:12;8.00;99.90
14531;DHT22;7352;50.866;4.366;2022-12-07T10:15:53;7.90;99.90
14531;DHT22;7352;50.866;4.366;2022-12-07T10:18:28;7.80;99.90
14531;DHT22;7352;50.866;4.366;2022-12-07T10:21:03;8.00;99.90
14531;DHT22;7352;50.866;4.366;2022-12-07T10:23:33;8.00;99.90
14531;DHT22;7352;50.866;4.366;2022-12-07T10:26:20;8.10;99.90
14531;DHT22;7352;50.866;4.366;2022-12-07T10:28:50;8.10;99.90
14531;DHT22;7352;50.866;4.366;2022-12-07T10:31:20;8.00;99.90
14531;DHT22;7352;50.866;4.366;2022-12-07T10:33:53;8.10;99.90
14531;DHT22;7352;50.866;4.366;2022-12-07T10:36:23;8.20;99.90
14531;DHT22;7352;50.866;4.366;2022-12-07T10:38:51;8.20;99.90
14531;DHT22;7352;50.866;4.366;2022-12-07T10:41:20;8.10;99.90
14531;DHT22;7352;50.866;4.366;2022-12-07T10:43:51;8.00;99.90
14531;DHT22;7352;50.866;4.366;2022-12-07T10:49:41;7.90;99.90
14531;DHT22;7352;50.866;4.366;2022-12-07T10:52:18;8.00;99.90
14531;DHT22;7352;50.866;4.366;2022-12-07T10:54:54;8.00;99.90
14531;DHT22;7352;50.866;4.366;2022-12-07T10:57:34;8.00;99.90
14531;DHT22;7352;50.866;4.366;2022-12-07T11:00:10;8.00;99.90
14531;DHT22;7352;50.866;4.366;2022-12-07T11:03:05;8.20;99.90
14531;DHT22;7352;50.866;4.366;2022-12-07T11:05:39;8.20;99.90
14531;DHT22;7352;50.866;4.366;2022-12-07T11:08:16;8.10;99.90
14531;DHT22;7352;50.866;4.366;2022-12-07T11:10:50;8.20;99.90
14531;DHT22;7352;50.866;4.366;2022-12-07T11:13:26;8.30;99.90
14531;DHT22;7352;50.866;4.366;2022-12-07T11:16:08;8.20;99.90
14531;DHT22;7352;50.866;4.366;2022-12-07T11:18:48;8.10;99.90
14531;DHT22;7352;50.866;4.366;2022-12-07T11:21:20;8.20;99.90
14531;DHT22;7352;50.866;4.366;2022-12-07T11:23:54;8.00;99.90
14531;DHT22;7352;50.866;4.366;2022-12-07T11:26:38;8.00;99.90
14531;DHT22;7352;50.866;4.366;2022-12-07T11:29:25;8.00;99.90
14531;DHT22;7352;50.866;4.366;2022-12-07T11:32:02;8.00;99.90
14531;DHT22;7352;50.866;4.366;2022-12-07T11:34:39;7.80;99.90
14531;DHT22;7352;50.866;4.366;2022-12-07T11:37:13;7.70;99.90
14531;DHT22;7352;50.866;4.366;2022-12-07T11:39:47;7.70;99.90
14531;DHT22;7352;50.866;4.366;2022-12-07T11:42:20;7.70;99.90
14531;DHT22;7352;50.866;4.366;2022-12-07T11:44:55;7.80;99.90
14531;DHT22;7352;50.866;4.366;2022-12-07T11:47:29;7.80;99.90
14531;DHT22;7352;50.866;4.366;2022-12-07T11:50:05;7.80;99.90
14531;DHT22;7352;50.866;4.366;2022-12-07T11:52:47;7.80;99.90
14531;DHT22;7352;50.866;4.366;2022-12-07T11:55:21;7.70;99.90
14531;DHT22;7352;50.866;4.366;2022-12-07T11:57:54;7.80;99.90
14531;DHT22;7352;50.866;4.366;2022-12-07T12:00:24;8.00;99.90
14531;DHT22;7352;50.866;4.366;2022-12-07T12:02:53;8.10;99.90
14531;DHT22;7352;50.866;4.366;2022-12-07T12:05:25;8.20;99.90
14531;DHT22;7352;50.866;4.366;2022-12-07T12:08:00;8.30;99.90
14531;DHT22;7352;50.866;4.366;2022-12-07T12:10:37;8.30;99.90
14531;DHT22;7352;50.866;4.366;2022-12-07T12:16:22;8.10;99.90
14531;DHT22;7352;50.866;4.366;2022-12-07T12:19:16;8.00;99.90
14531;DHT22;7352;50.866;4.366;2022-12-07T12:21:49;8.10;99.90
14531;DHT22;7352;50.866;4.366;2022-12-07T12:24:23;8.10;99.90
14531;DHT22;7352;50.866;4.366;2022-12-07T12:26:54;8.10;99.90
14531;DHT22;7352;50.866;4.366;2022-12-07T12:29:30;8.00;99.90
14531;DHT22;7352;50.866;4.366;2022-12-07T12:32:07;8.00;99.90
14531;DHT22;7352;50.866;4.366;2022-12-07T12:34:57;8.00;99.90
14531;DHT22;7352;50.866;4.366;2022-12-07T12:37:41;8.00;99.90
14531;DHT22;7352;50.866;4.366;2022-12-07T12:46:47;8.00;99.90
14531;DHT22;7352;50.866;4.366;2022-12-07T12:49:42;8.20;99.90
14531;DHT22;7352;50.866;4.366;2022-12-07T12:58:40;8.30;99.90
14531;DHT22;7352;50.866;4.366;2022-12-07T13:01:40;8.40;99.90
14531;DHT22;7352;50.866;4.366;2022-12-07T13:04:24;8.60;99.90
14531;DHT22;7352;50.866;4.366;2022-12-07T13:06:52;8.80;99.90
14531;DHT22;7352;50.866;4.366;2022-12-07T13:09:22;8.90;99.90
14531;DHT22;7352;50.866;4.366;2022-12-07T13:11:56;9.00;99.90
14531;DHT22;7352;50.866;4.366;2022-12-07T13:14:53;8.90;99.90
14531;DHT22;7352;50.866;4.366;2022-12-07T13:17:57;9.00;99.90
14531;DHT22;7352;50.866;4.366;2022-12-07T13:20:56;8.90;99.90
14531;DHT22;7352;50.866;4.366;2022-12-07T13:23:27;8.90;99.90
14531;DHT22;7352;50.866;4.366;2022-12-07T13:26:01;8.70;99.90
14531;DHT22;7352;50.866;4.366;2022-12-07T13:28:38;8.80;99.90
14531;DHT22;7352;50.866;4.366;2022-12-07T13:31:30;8.70;99.90
14531;DHT22;7352;50.866;4.366;2022-12-07T13:33:57;8.60;99.90
14531;DHT22;7352;50.866;4.366;2022-12-07T13:36:29;8.70;99.90
14531;DHT22;7352;50.866;4.366;2022-12-07T13:39:15;8.70;99.90
14531;DHT22;7352;50.866;4.366;2022-12-07T13:41:43;8.70;99.90
14531;DHT22;7352;50.866;4.366;2022-12-07T13:44:12;8.70;99.90
14531;DHT22;7352;50.866;4.366;2022-12-07T13:46:49;8.70;99.90
14531;DHT22;7352;50.866;4.366;2022-12-07T13:49:21;9.00;99.90
14531;DHT22;7352;50.866;4.366;2022-12-07T13:51:48;9.20;99.90
14531;DHT22;7352;50.866;4.366;2022-12-07T13:54:17;9.10;99.90
14531;DHT22;7352;50.866;4.366;2022-12-07T13:56:49;9.10;99.90
14531;DHT22;7352;50.866;4.366;2022-12-07T13:59:18;9.10;99.90
14531;DHT22;7352;50.866;4.366;2022-12-07T14:01:48;8.90;99.90
14531;DHT22;7352;50.866;4.366;2022-12-07T14:04:32;8.80;99.90
14531;DHT22;7352;50.866;4.366;2022-12-07T14:07:00;8.70;99.90
14531;DHT22;7352;50.866;4.366;2022-12-07T14:09:29;8.60;99.90
14531;DHT22;7352;50.866;4.366;2022-12-07T14:11:57;8.40;99.90
14531;DHT22;7352;50.866;4.366;2022-12-07T14:14:27;8.50;99.90
14531;DHT22;7352;50.866;4.366;2022-12-07T14:17:01;8.20;99.90
14531;DHT22;7352;50.866;4.366;2022-12-07T14:19:50;8.10;99.90
14531;DHT22;7352;50.866;4.366;2022-12-07T14:22:35;8.00;99.90
14531;DHT22;7352;50.866;4.366;2022-12-07T14:25:27;8.00;99.90
14531;DHT22;7352;50.866;4.366;2022-12-07T14:27:55;8.20;99.90
14531;DHT22;7352;50.866;4.366;2022-12-07T14:30:25;8.10;99.90
14531;DHT22;7352;50.866;4.366;2022-12-07T14:32:57;7.90;99.90
14531;DHT22;7352;50.866;4.366;2022-12-07T14:35:25;7.90;99.90
14531;DHT22;7352;50.866;4.366;2022-12-07T14:37:53;7.80;99.90
14531;DHT22;7352;50.866;4.366;2022-12-07T14:40:22;7.90;99.90
14531;DHT22;7352;50.866;4.366;2022-12-07T14:42:51;7.90;99.90
14531;DHT22;7352;50.866;4.366;2022-12-07T14:45:20;8.10;99.90
14531;DHT22;7352;50.866;4.366;2022-12-07T14:47:47;8.10;99.90
14531;DHT22;7352;50.866;4.366;2022-12-07T14:50:18;8.10;99.90
14531;DHT22;7352;50.866;4.366;2022-12-07T14:52:48;8.10;99.90
14531;DHT22;7352;50.866;4.366;2022-12-07T14:55:22;8.00;99.90
14531;DHT22;7352;50.866;4.366;2022-12-07T14:57:50;7.80;99.90
14531;DHT22;7352;50.866;4.366;2022-12-07T15:00:19;7.80;99.90
14531;DHT22;7352;50.866;4.366;2022-12-07T15:02:47;7.90;99.90
14531;DHT22;7352;50.866;4.366;2022-12-07T15:05:17;8.00;99.90
14531;DHT22;7352;50.866;4.366;2022-12-07T15:07:46;8.10;99.90
14531;DHT22;7352;50.866;4.366;2022-12-07T15:10:16;8.10;99.90
14531;DHT22;7352;50.866;4.366;2022-12-07T15:12:44;8.20;99.90
14531;DHT22;7352;50.866;4.366;2022-12-07T15:15:11;8.10;99.90
14531;DHT22;7352;50.866;4.366;2022-12-07T15:17:38;8.10;99.90
14531;DHT22;7352;50.866;4.366;2022-12-07T15:20:07;8.10;99.90
14531;DHT22;7352;50.866;4.366;2022-12-07T15:22:37;8.10;99.90
14531;DHT22;7352;50.866;4.366;2022-12-07T15:25:05;8.00;99.90
14531;DHT22;7352;50.866;4.366;2022-12-07T15:27:32;8.10;99.90
14531;DHT22;7352;50.866;4.366;2022-12-07T15:29:59;8.10;99.90
14531;DHT22;7352;50.866;4.366;2022-12-07T15:32:25;8.20;99.90
14531;DHT22;7352;50.866;4.366;2022-12-07T15:34:52;8.10;99.90
14531;DHT22;7352;50.866;4.366;2022-12-07T15:37:20;8.00;99.90
14531;DHT22;7352;50.866;4.366;2022-12-07T15:39:48;8.00;99.90
14531;DHT22;7352;50.866;4.366;2022-12-07T15:42:15;8.00;99.90
14531;DHT22;7352;50.866;4.366;2022-12-07T15:44:42;8.00;99.90
14531;DHT22;7352;50.866;4.366;2022-12-07T15:47:26;8.10;99.90
14531;DHT22;7352;50.866;4.366;2022-12-07T15:49:56;7.90;99.90
14531;DHT22;7352;50.866;4.366;2022-12-07T15:52:23;7.90;99.90
14531;DHT22;7352;50.866;4.366;2022-12-07T15:54:51;7.90;99.90
14531;DHT22;7352;50.866;4.366;2022-12-07T15:57:19;7.80;99.90
14531;DHT22;7352;50.866;4.366;2022-12-07T15:59:46;7.80;99.90
14531;DHT22;7352;50.866;4.366;2022-12-07T16:02:13;7.80;99.90
14531;DHT22;7352;50.866;4.366;2022-12-07T16:04:40;7.90;99.90
14531;DHT22;7352;50.866;4.366;2022-12-07T16:07:08;7.90;99.90
14531;DHT22;7352;50.866;4.366;2022-12-07T16:09:37;7.90;99.90
14531;DHT22;7352;50.866;4.366;2022-12-07T16:12:06;7.90;99.90
14531;DHT22;7352;50.866;4.366;2022-12-07T16:14:33;7.80;99.90
14531;DHT22;7352;50.866;4.366;2022-12-07T16:17:00;7.70;99.90
14531;DHT22;7352;50.866;4.366;2022-12-07T16:19:27;7.70;99.90
14531;DHT22;7352;50.866;4.366;2022-12-07T16:21:53;7.70;99.90
14531;DHT22;7352;50.866;4.366;2022-12-07T16:24:20;7.60;99.90
14531;DHT22;7352;50.866;4.366;2022-12-07T16:26:47;7.70;99.90
14531;DHT22;7352;50.866;4.366;2022-12-07T16:29:17;7.70;99.90
14531;DHT22;7352;50.866;4.366;2022-12-07T16:31:44;7.70;99.90
14531;DHT22;7352;50.866;4.366;2022-12-07T16:34:12;7.80;99.90
14531;DHT22;7352;50.866;4.366;2022-12-07T16:36:39;7.80;99.90
14531;DHT22;7352;50.866;4.366;2022-12-07T16:39:06;7.70;99.90
14531;DHT22;7352;50.866;4.366;2022-12-07T16:41:34;7.60;99.90
14531;DHT22;7352;50.866;4.366;2022-12-07T16:44:03;7.80;99.90
14531;DHT22;7352;50.866;4.366;2022-12-07T16:46:33;8.00;99.90